createdAt,value
2019-03-23T00:02:16.535Z,27.90
2019-03-23T00:05:10.374Z,27.90
2019-03-23T00:08:03.426Z,27.90
2019-03-23T00:10:56.164Z,27.90
2019-03-23T00:13:49.147Z,27.90
2019-03-23T00:16:42.276Z,27.90
2019-03-23T00:19:35.081Z,27.80
2019-03-23T00:22:27.535Z,27.80
2019-03-23T00:25:20.155Z,27.80
2019-03-23T00:28:13.236Z,27.80
2019-03-23T00:31:05.624Z,27.80
2019-03-23T00:33:58.467Z,27.80
2019-03-23T00:36:50.833Z,27.80
2019-03-23T00:39:46.259Z,27.80
2019-03-23T00:42:38.914Z,27.80
2019-03-23T00:45:31.424Z,27.80
2019-03-23T00:48:24.227Z,27.90
2019-03-23T00:51:16.958Z,27.80
2019-03-23T00:54:09.480Z,27.80
2019-03-23T00:57:01.973Z,27.80
2019-03-23T00:59:55.489Z,27.80
2019-03-23T01:02:48.209Z,27.80
2019-03-23T01:05:40.827Z,27.80
2019-03-23T01:08:33.412Z,27.80
2019-03-23T01:11:26.333Z,27.80
2019-03-23T01:14:20.360Z,27.80
2019-03-23T01:17:12.548Z,27.80
2019-03-23T01:20:05.139Z,27.80
2019-03-23T01:22:57.703Z,27.80
2019-03-23T01:25:50.612Z,27.80
2019-03-23T01:28:43.278Z,27.80
2019-03-23T01:31:36.398Z,27.80
2019-03-23T01:34:30.793Z,27.80
2019-03-23T01:37:24.245Z,27.80
2019-03-23T01:40:17.255Z,27.80
2019-03-23T01:43:10.628Z,27.80
2019-03-23T01:46:13.205Z,27.80
2019-03-23T01:49:06.708Z,27.80
2019-03-23T01:51:59.797Z,27.80
2019-03-23T01:54:52.958Z,27.90
2019-03-23T01:57:45.504Z,27.80
2019-03-23T02:00:38.818Z,27.90
2019-03-23T02:03:31.669Z,27.90
2019-03-23T02:06:24.605Z,27.90
2019-03-23T02:09:17.340Z,27.90
2019-03-23T02:12:10.577Z,27.90
2019-03-23T02:15:03.315Z,27.90
2019-03-23T02:17:55.985Z,27.90
2019-03-23T02:20:48.650Z,27.90
2019-03-23T02:23:45.178Z,27.90
2019-03-23T02:26:37.933Z,27.90
2019-03-23T02:29:32.056Z,27.90
2019-03-23T02:32:24.840Z,28.00
2019-03-23T02:35:19.661Z,28.00
2019-03-23T02:38:12.293Z,28.00
2019-03-23T02:41:04.849Z,28.00
2019-03-23T02:43:57.622Z,27.90
2019-03-23T02:46:50.217Z,27.90
2019-03-23T02:49:44.851Z,27.90
2019-03-23T02:52:37.529Z,27.90
2019-03-23T02:55:30.551Z,27.90
2019-03-23T02:58:24.396Z,27.90
2019-03-23T03:01:16.859Z,27.90
2019-03-23T03:04:09.256Z,27.90
2019-03-23T03:07:01.619Z,27.90
2019-03-23T03:09:54.180Z,27.90
2019-03-23T03:12:46.817Z,27.90
2019-03-23T03:15:41.180Z,27.90
2019-03-23T03:18:34.321Z,27.90
2019-03-23T03:21:29.207Z,27.90
2019-03-23T03:24:23.659Z,27.90
2019-03-23T03:27:15.938Z,27.90
2019-03-23T03:30:11.105Z,27.90
2019-03-23T03:33:04.290Z,27.90
2019-03-23T03:35:57.104Z,27.90
2019-03-23T03:38:49.785Z,28.00
2019-03-23T03:41:42.166Z,28.00
2019-03-23T03:44:34.866Z,27.90
2019-03-23T03:47:27.600Z,27.90
2019-03-23T03:50:21.321Z,27.90
2019-03-23T03:53:15.372Z,27.90
2019-03-23T03:56:08.170Z,28.00
2019-03-23T03:59:03.007Z,28.00
2019-03-23T04:01:56.028Z,28.00
2019-03-23T04:04:50.474Z,28.00
2019-03-23T04:07:45.133Z,28.00
2019-03-23T04:10:38.671Z,28.00
2019-03-23T04:13:31.426Z,28.00
2019-03-23T04:16:24.207Z,28.00
2019-03-23T04:19:18.955Z,28.00
2019-03-23T04:22:14.503Z,28.00
2019-03-23T04:25:10.239Z,28.10
2019-03-23T04:28:03.711Z,28.00
2019-03-23T04:30:56.929Z,28.00
2019-03-23T04:33:50.996Z,28.00
2019-03-23T04:36:43.770Z,28.10
2019-03-23T04:39:36.861Z,28.10
2019-03-23T04:42:30.013Z,28.10
2019-03-23T04:45:25.032Z,28.10
2019-03-23T04:48:20.726Z,28.10
2019-03-23T04:51:13.776Z,28.10
2019-03-23T04:54:07.553Z,28.10
2019-03-23T04:57:02.314Z,28.10
2019-03-23T04:59:57.187Z,28.10
2019-03-23T05:02:50.207Z,28.20
2019-03-23T05:05:43.512Z,28.10
2019-03-23T05:08:36.105Z,28.10
2019-03-23T05:11:30.823Z,28.10
2019-03-23T05:14:24.767Z,28.10
2019-03-23T05:17:20.194Z,28.10
2019-03-23T05:20:15.329Z,28.10
2019-03-23T05:23:11.017Z,28.20
2019-03-23T05:26:07.069Z,28.20
2019-03-23T05:29:01.149Z,28.10
2019-03-23T05:31:53.839Z,28.20
2019-03-23T05:34:47.780Z,28.20
2019-03-23T05:37:40.554Z,28.10
2019-03-23T05:40:33.636Z,28.10
2019-03-23T05:43:26.731Z,28.10
2019-03-23T05:46:19.667Z,28.10
2019-03-23T05:49:12.372Z,28.10
2019-03-23T05:52:05.698Z,28.10
2019-03-23T05:55:00.557Z,28.00
2019-03-23T05:57:53.193Z,28.00
2019-03-23T06:00:47.015Z,28.10
2019-03-23T06:03:40.371Z,28.10
2019-03-23T06:06:42.319Z,28.00
2019-03-23T06:09:36.013Z,28.10
2019-03-23T06:12:28.670Z,28.20
2019-03-23T06:15:22.186Z,28.20
2019-03-23T06:18:16.724Z,28.20
2019-03-23T06:21:10.544Z,28.30
2019-03-23T06:24:05.220Z,28.20
2019-03-23T06:26:59.859Z,28.30
2019-03-23T06:29:53.672Z,28.20
2019-03-23T06:32:46.676Z,28.30
2019-03-23T06:35:40.044Z,28.30
2019-03-23T06:38:32.723Z,28.30
2019-03-23T06:41:26.778Z,28.30
2019-03-23T06:44:22.082Z,28.30
2019-03-23T06:47:14.801Z,28.30
2019-03-23T06:50:09.372Z,28.40
2019-03-23T06:53:04.663Z,28.30
2019-03-23T06:55:57.784Z,28.30
2019-03-23T06:58:54.128Z,28.30
2019-03-23T07:01:49.386Z,28.40
2019-03-23T07:04:43.433Z,28.40
2019-03-23T07:07:36.979Z,28.40
2019-03-23T07:10:32.860Z,28.40
2019-03-23T07:16:32.238Z,28.40
2019-03-23T07:19:29.130Z,28.40
2019-03-23T07:22:25.722Z,28.40
2019-03-23T07:25:20.935Z,28.40
2019-03-23T07:28:21.296Z,28.40
2019-03-23T07:31:16.273Z,28.40
2019-03-23T07:34:12.097Z,28.40
2019-03-23T07:37:06.884Z,28.40
2019-03-23T07:39:59.678Z,28.40
2019-03-23T07:42:52.077Z,28.40
2019-03-23T07:45:46.370Z,28.40
2019-03-23T07:48:39.775Z,28.40
2019-03-23T07:51:32.607Z,28.40
2019-03-23T07:54:25.066Z,28.40
2019-03-23T07:57:18.164Z,28.40
2019-03-23T08:00:12.230Z,28.30
2019-03-23T08:03:04.856Z,28.40
2019-03-23T08:06:00.717Z,28.40
2019-03-23T08:08:56.349Z,28.50
2019-03-23T08:11:50.779Z,28.40
2019-03-23T08:14:43.344Z,28.40
2019-03-23T08:17:53.827Z,28.40
2019-03-23T08:20:43.691Z,28.40
2019-03-23T08:23:36.444Z,28.40
2019-03-23T08:26:30.682Z,28.40
2019-03-23T08:29:24.806Z,28.40
2019-03-23T08:32:18.208Z,28.30
2019-03-23T08:35:10.997Z,28.30
2019-03-23T08:38:19.831Z,28.30
2019-03-23T08:41:12.858Z,28.30
2019-03-23T08:44:06.448Z,28.30
2019-03-23T08:46:59.623Z,28.20
2019-03-23T08:49:52.150Z,28.20
2019-03-23T08:52:45.416Z,28.20
2019-03-23T08:55:38.502Z,28.20
2019-03-23T08:58:32.508Z,28.20
2019-03-23T09:01:47.714Z,28.20
2019-03-23T09:04:38.234Z,28.20
2019-03-23T09:07:33.014Z,28.30
2019-03-23T09:10:31.720Z,28.40
2019-03-23T09:13:24.769Z,28.30
2019-03-23T09:16:23.174Z,28.30
2019-03-23T09:19:17.087Z,28.30
2019-03-23T09:22:09.739Z,28.30
2019-03-23T09:25:02.803Z,28.30
2019-03-23T09:27:58.116Z,28.20
2019-03-23T09:30:51.247Z,28.20
2019-03-23T09:33:44.084Z,28.20
2019-03-23T09:36:38.465Z,28.20
2019-03-23T09:39:41.017Z,28.30
2019-03-23T09:42:40.595Z,28.20
2019-03-23T09:45:35.769Z,28.20
2019-03-23T09:48:54.170Z,28.20
2019-03-23T09:51:51.430Z,28.20
2019-03-23T09:54:48.328Z,28.20
2019-03-23T09:57:41.488Z,28.20
2019-03-23T10:00:35.305Z,28.20
2019-03-23T10:03:34.663Z,28.20
2019-03-23T10:06:29.774Z,28.20
2019-03-23T10:09:23.597Z,28.20
2019-03-23T10:12:17.116Z,28.20
2019-03-23T10:15:11.266Z,28.20
2019-03-23T10:18:06.007Z,28.20
2019-03-23T10:20:59.637Z,28.20
2019-03-23T10:24:05.017Z,28.20
2019-03-23T10:27:19.201Z,28.20
2019-03-23T10:30:15.474Z,28.20
2019-03-23T10:33:11.168Z,28.20
2019-03-23T10:36:08.055Z,28.20
2019-03-23T10:39:03.553Z,28.20
2019-03-23T10:42:06.240Z,28.20
2019-03-23T10:45:01.088Z,28.20
2019-03-23T10:47:58.947Z,28.20
2019-03-23T10:50:54.805Z,28.20
2019-03-23T10:53:47.976Z,28.20
2019-03-23T10:56:43.885Z,28.20
2019-03-23T10:59:39.466Z,28.20
2019-03-23T11:02:33.013Z,28.20
2019-03-23T11:05:27.667Z,28.20
2019-03-23T11:08:22.120Z,28.20
2019-03-23T11:11:15.024Z,28.20
2019-03-23T11:14:08.955Z,28.20
2019-03-23T11:17:06.699Z,28.20
2019-03-23T11:20:01.918Z,28.20
2019-03-23T11:22:57.381Z,28.20
2019-03-23T11:25:50.979Z,28.20
2019-03-23T11:28:44.547Z,28.20
2019-03-23T11:31:52.119Z,28.20
2019-03-23T11:34:45.378Z,28.20
2019-03-23T11:37:39.606Z,28.20
2019-03-23T11:40:34.053Z,28.20
2019-03-23T11:43:28.614Z,28.20
2019-03-23T11:46:22.821Z,28.20
2019-03-23T11:49:17.611Z,28.20
2019-03-23T11:52:12.388Z,28.20
2019-03-23T11:55:07.421Z,28.20
2019-03-23T11:58:01.643Z,28.20
2019-03-23T12:00:57.086Z,28.20
2019-03-23T12:03:50.826Z,28.20
2019-03-23T12:06:46.472Z,28.20
2019-03-23T12:09:42.715Z,28.20
2019-03-23T12:12:36.614Z,28.20
2019-03-23T12:15:31.793Z,28.20
2019-03-23T12:18:26.002Z,28.20
2019-03-23T12:21:19.707Z,28.20
2019-03-23T12:24:13.455Z,28.20
2019-03-23T12:27:12.011Z,28.20
2019-03-23T12:30:07.624Z,28.20
2019-03-23T12:33:01.645Z,28.20
2019-03-23T12:35:54.890Z,28.20
2019-03-23T12:38:50.784Z,28.20
2019-03-23T12:41:43.451Z,28.20
2019-03-23T12:44:39.082Z,28.20
2019-03-23T12:47:32.121Z,28.20
2019-03-23T12:50:27.488Z,28.20
2019-03-23T12:53:22.933Z,28.20
2019-03-23T12:56:16.697Z,28.20
2019-03-23T12:59:10.355Z,28.20
2019-03-23T13:02:03.856Z,28.20
2019-03-23T13:04:56.898Z,28.20
2019-03-23T13:07:50.347Z,28.20
2019-03-23T13:10:44.210Z,28.20
2019-03-23T13:13:36.912Z,28.20
2019-03-23T13:16:36.024Z,28.20
2019-03-23T13:19:29.111Z,28.20
2019-03-23T13:22:22.119Z,28.20
2019-03-23T13:25:15.114Z,28.20
2019-03-23T13:28:08.434Z,28.20
2019-03-23T13:31:03.704Z,28.20
2019-03-23T13:33:57.315Z,28.20
2019-03-23T13:36:51.455Z,28.20
2019-03-23T13:39:44.593Z,28.20
2019-03-23T13:42:38.437Z,28.20
2019-03-23T13:45:30.970Z,28.20
2019-03-23T13:48:23.705Z,28.20
2019-03-23T13:51:16.496Z,28.10
2019-03-23T13:54:09.214Z,28.20
2019-03-23T13:57:01.994Z,28.20
2019-03-23T13:59:54.313Z,28.20
2019-03-23T14:02:46.614Z,28.10
2019-03-23T14:05:39.384Z,28.20
2019-03-23T14:08:31.948Z,28.20
2019-03-23T14:11:25.485Z,28.10
2019-03-23T14:14:18.488Z,28.10
2019-03-23T14:17:11.194Z,28.20
2019-03-23T14:20:03.729Z,28.20
2019-03-23T14:23:02.587Z,28.10
2019-03-23T14:25:50.977Z,28.20
2019-03-23T14:28:43.992Z,28.20
2019-03-23T14:31:37.968Z,28.20
2019-03-23T14:34:30.794Z,28.10
2019-03-23T14:37:23.580Z,28.10
2019-03-23T14:40:18.434Z,28.20
2019-03-23T14:43:11.969Z,28.20
2019-03-23T14:46:05.211Z,28.20
2019-03-23T14:49:01.833Z,28.20
2019-03-23T14:51:54.793Z,28.20
2019-03-23T14:54:47.530Z,28.10
2019-03-23T14:57:40.586Z,28.10
2019-03-23T15:00:34.641Z,28.20
2019-03-23T15:03:27.883Z,28.20
2019-03-23T15:06:21.804Z,28.20
2019-03-23T15:09:14.560Z,28.20
2019-03-23T15:12:14.778Z,28.20
2019-03-23T15:15:02.710Z,28.20
2019-03-23T15:17:56.741Z,28.10
2019-03-23T15:20:50.914Z,28.20
2019-03-23T15:23:45.210Z,28.20
2019-03-23T15:26:38.707Z,28.10
2019-03-23T15:29:31.308Z,28.20
2019-03-23T15:32:25.703Z,28.20
2019-03-23T15:35:19.847Z,28.10
2019-03-23T15:38:14.729Z,28.20
2019-03-23T15:41:07.750Z,28.10
2019-03-23T15:44:01.273Z,28.20
2019-03-23T15:46:54.284Z,28.20
2019-03-23T15:49:46.709Z,28.20
2019-03-23T15:52:40.384Z,28.10
2019-03-23T15:55:32.983Z,28.20
2019-03-23T15:58:27.837Z,28.20
2019-03-23T16:01:23.283Z,28.10
2019-03-23T16:04:17.103Z,28.10
2019-03-23T16:07:10.142Z,28.10
2019-03-23T16:10:07.963Z,28.10
2019-03-23T16:13:03.253Z,28.10
2019-03-23T16:15:59.498Z,28.20
2019-03-23T16:18:53.637Z,28.20
2019-03-23T16:21:47.031Z,28.20
2019-03-23T16:24:41.598Z,28.10
2019-03-23T16:27:34.709Z,28.10
2019-03-23T16:30:32.852Z,28.20
2019-03-23T16:33:26.355Z,28.20
2019-03-23T16:36:18.827Z,28.20
2019-03-23T16:39:12.429Z,28.10
2019-03-23T16:42:05.284Z,28.20
2019-03-23T16:45:00.577Z,28.20
2019-03-23T16:47:55.946Z,28.20
2019-03-23T16:50:50.537Z,28.10
2019-03-23T16:53:43.806Z,28.20
2019-03-23T16:56:37.187Z,28.10
2019-03-23T16:59:30.969Z,28.10
2019-03-23T17:02:24.967Z,28.10
2019-03-23T17:05:22.094Z,28.10
2019-03-23T17:08:16.175Z,28.10
2019-03-23T17:11:11.336Z,28.20
2019-03-23T17:14:05.363Z,28.20
2019-03-23T17:16:57.810Z,28.10
2019-03-23T17:19:50.850Z,28.20
2019-03-23T17:22:44.125Z,28.20
2019-03-23T17:25:37.829Z,28.10
2019-03-23T17:28:31.310Z,27.60
2019-03-23T17:31:24.639Z,27.10
2019-03-23T17:34:18.625Z,26.70
2019-03-23T17:37:12.962Z,26.50
2019-03-23T17:40:05.762Z,26.20
2019-03-23T17:43:05.955Z,26.00
2019-03-23T17:45:57.689Z,25.80
2019-03-23T17:48:50.442Z,25.70
2019-03-23T17:51:43.082Z,25.60
2019-03-23T17:54:38.370Z,25.50
2019-03-23T17:57:32.492Z,25.30
2019-03-23T18:00:25.404Z,25.20
2019-03-23T18:03:18.955Z,25.10
2019-03-23T18:06:12.086Z,25.00
2019-03-23T18:09:06.141Z,24.90
2019-03-23T18:11:59.313Z,24.90
2019-03-23T18:14:53.181Z,24.80
2019-03-23T18:17:46.531Z,24.80
2019-03-23T18:20:39.207Z,24.60
2019-03-23T18:23:32.390Z,24.60
2019-03-23T18:26:25.460Z,24.50
2019-03-23T18:29:18.707Z,24.50
2019-03-23T18:32:13.190Z,24.40
2019-03-23T18:35:08.173Z,24.30
2019-03-23T18:38:00.939Z,24.30
2019-03-23T18:40:53.315Z,24.30
2019-03-23T18:43:46.032Z,24.20
2019-03-23T18:46:38.764Z,24.10
2019-03-23T18:49:32.944Z,24.10
2019-03-23T18:52:25.697Z,24.10
2019-03-23T18:55:18.527Z,24.00
2019-03-23T18:58:11.938Z,23.90
2019-03-23T19:01:05.378Z,23.90
2019-03-23T19:03:58.200Z,23.90
2019-03-23T19:06:52.234Z,23.80
2019-03-23T19:09:45.171Z,23.90
2019-03-23T19:12:37.910Z,23.80
2019-03-23T19:15:30.458Z,23.80
2019-03-23T19:18:22.632Z,23.80
2019-03-23T19:21:14.970Z,23.70
2019-03-23T19:24:09.251Z,23.70
2019-03-23T19:27:00.755Z,23.80
2019-03-23T19:29:52.968Z,23.70
2019-03-23T19:32:45.101Z,23.60
2019-03-23T19:35:37.558Z,23.70
2019-03-23T19:38:30.580Z,23.60
2019-03-23T19:41:22.782Z,23.60
2019-03-23T19:44:15.015Z,23.60
2019-03-23T19:47:08.015Z,23.50
2019-03-23T19:50:01.067Z,23.50
2019-03-23T19:52:55.100Z,23.50
2019-03-23T19:55:48.114Z,23.40
2019-03-23T19:58:40.787Z,23.40
2019-03-23T20:01:33.499Z,23.30
2019-03-23T20:04:26.880Z,23.20
2019-03-23T20:07:19.347Z,23.10
2019-03-23T20:10:11.880Z,23.20
2019-03-23T20:13:04.415Z,23.10
2019-03-23T20:15:58.693Z,23.10
2019-03-23T20:18:51.336Z,23.00
2019-03-23T20:21:44.374Z,23.10
2019-03-23T20:24:36.582Z,23.00
2019-03-23T20:27:29.157Z,23.00
2019-03-23T20:30:21.821Z,23.00
2019-03-23T20:33:19.399Z,23.00
2019-03-23T20:36:08.203Z,23.00
2019-03-23T20:39:00.789Z,22.90
2019-03-23T20:41:54.473Z,22.90
2019-03-23T20:44:46.965Z,22.90
2019-03-23T20:47:39.425Z,22.90
2019-03-23T20:50:31.930Z,22.80
2019-03-23T20:53:24.630Z,22.80
2019-03-23T20:56:16.982Z,22.80
2019-03-23T20:59:09.092Z,22.80
2019-03-23T21:02:01.612Z,22.80
2019-03-23T21:04:54.436Z,22.80
2019-03-23T21:07:47.271Z,22.70
2019-03-23T21:10:39.724Z,22.70
2019-03-23T21:13:32.126Z,22.70
2019-03-23T21:16:24.631Z,22.60
2019-03-23T21:19:17.550Z,22.60
2019-03-23T21:22:10.112Z,22.60
2019-03-23T21:25:02.587Z,22.60
2019-03-23T21:27:55.449Z,22.50
2019-03-23T21:30:48.219Z,22.50
2019-03-23T21:33:40.806Z,22.50
2019-03-23T21:36:33.400Z,22.50
2019-03-23T21:39:26.437Z,22.50
2019-03-23T21:42:19.204Z,22.50
2019-03-23T21:45:11.985Z,22.50
2019-03-23T21:48:04.887Z,22.50
2019-03-23T21:50:57.250Z,22.40
2019-03-23T21:53:50.154Z,22.40
2019-03-23T21:56:43.109Z,22.40
2019-03-23T21:59:35.896Z,22.40
2019-03-23T22:02:28.658Z,22.40
2019-03-23T22:05:21.026Z,22.50
2019-03-23T22:08:13.513Z,23.00
2019-03-23T22:11:05.763Z,23.50
2019-03-23T22:13:58.054Z,23.80
2019-03-23T22:16:50.420Z,23.90
2019-03-23T22:19:43.012Z,24.10
2019-03-23T22:22:35.172Z,24.30
2019-03-23T22:25:27.457Z,24.40
2019-03-23T22:28:19.864Z,24.50
2019-03-23T22:31:12.458Z,24.60
2019-03-23T22:34:04.847Z,24.70
2019-03-23T22:36:59.510Z,24.70
2019-03-23T22:39:52.046Z,24.80
2019-03-23T22:42:44.515Z,24.90
2019-03-23T22:45:36.831Z,24.90
2019-03-23T22:48:29.405Z,25.00
2019-03-23T22:51:21.820Z,25.10
2019-03-23T22:54:14.183Z,25.10
2019-03-23T22:57:06.883Z,25.10
2019-03-23T22:59:59.680Z,25.20
2019-03-23T23:02:52.086Z,25.20
2019-03-23T23:05:44.510Z,25.30
2019-03-23T23:08:36.998Z,25.30
2019-03-23T23:11:29.449Z,25.40
2019-03-23T23:14:22.817Z,25.40
2019-03-23T23:17:15.281Z,25.50
2019-03-23T23:20:09.119Z,25.50
2019-03-23T23:23:01.977Z,25.50
2019-03-23T23:25:55.582Z,25.50
2019-03-23T23:28:56.687Z,25.60
2019-03-23T23:31:49.372Z,25.60
2019-03-23T23:34:42.102Z,25.70
2019-03-23T23:37:35.157Z,25.70
2019-03-23T23:40:28.361Z,25.70
2019-03-23T23:43:21.283Z,25.70
2019-03-23T23:46:14.209Z,25.70
2019-03-23T23:49:07.525Z,25.80
2019-03-23T23:52:00.233Z,25.80
2019-03-23T23:54:53.063Z,25.80
2019-03-23T23:57:45.935Z,25.90
